Time;durP1;ratioP1;P1;durP2;ratioP2;P2;SDS_P1;SDS_P2;PMS_P1;PMS_P2;Temp;Humidity;BMP_temperature;BMP_pressure;BME280_temperature;BME280_humidity;BME280_pressure;Samples;Min_cycle;Max_cycle;Signal;HPM_P1;HPM_P2
2023/04/23 00:01:25;;;;;;;15.80;11.50;;;;;;;14.08;45.28;100407.85;108300;1260;61635;-46
2023/04/23 00:03:57;;;;;;;15.90;11.50;;;;;;;14.07;45.14;100412.18;105861;1259;63752;-45
2023/04/23 00:06:25;;;;;;;18.10;11.60;;;;;;;14.05;45.78;100416.04;104852;1258;60733;-45
2023/04/23 00:08:52;;;;;;;17.70;10.70;;;;;;;14.02;46.28;100420.62;104877;1258;59629;-45
2023/04/23 00:11:20;;;;;;;17.00;11.40;;;;;;;13.97;46.79;100421.80;108365;1260;65457;-46
2023/04/23 00:13:48;;;;;;;15.80;11.80;;;;;;;13.92;47.07;100423.99;108426;1260;62575;-46
2023/04/23 00:16:15;;;;;;;16.20;11.20;;;;;;;13.89;47.23;100424.09;108358;1257;63860;-46
2023/04/23 00:18:42;;;;;;;15.70;11.00;;;;;;;13.85;47.68;100425.70;108334;1257;59117;-46
2023/04/23 00:21:08;;;;;;;15.30;10.70;;;;;;;13.81;47.98;100426.77;108310;1257;59587;-46
2023/04/23 00:23:37;;;;;;;15.20;11.10;;;;;;;13.79;48.43;100424.86;108362;1257;65456;-46
2023/04/23 00:26:04;;;;;;;16.70;11.60;;;;;;;13.77;49.07;100426.42;108329;1257;62395;-46
2023/04/23 00:28:31;;;;;;;16.50;11.30;;;;;;;13.76;49.29;100429.55;108335;1257;64839;-46
2023/04/23 00:30:58;;;;;;;15.70;11.20;;;;;;;13.75;48.87;100427.67;108296;1258;59335;-46
2023/04/23 00:33:25;;;;;;;15.30;11.50;;;;;;;13.76;48.76;100428.46;108371;1257;59663;-47
2023/04/23 00:35:52;;;;;;;20.80;12.00;;;;;;;13.75;48.97;100428.05;108389;1254;64386;-46
2023/04/23 00:38:20;;;;;;;14.90;11.40;;;;;;;13.74;49.01;100426.23;108331;1257;63836;-46
2023/04/23 00:40:46;;;;;;;17.90;11.70;;;;;;;13.74;49.62;100431.08;107467;1260;64566;-46
2023/04/23 00:43:14;;;;;;;16.10;12.00;;;;;;;13.75;50.08;100429.65;108173;1258;63458;-47
2023/04/23 00:45:41;;;;;;;14.20;11.10;;;;;;;13.75;50.47;100429.60;108093;1264;58920;-46
2023/04/23 00:48:08;;;;;;;17.30;11.30;;;;;;;13.75;50.80;100426.39;105568;1263;67050;-46
2023/04/23 00:50:34;;;;;;;15.50;11.70;;;;;;;13.75;51.04;100428.20;104859;1260;62511;-45
2023/04/23 00:53:01;;;;;;;16.30;11.20;;;;;;;13.73;51.27;100431.02;104894;1260;65162;-45
2023/04/23 00:55:28;;;;;;;17.90;11.70;;;;;;;13.69;51.62;100431.09;104933;1257;62167;-45
2023/04/23 00:57:55;;;;;;;19.10;13.50;;;;;;;13.64;51.69;100430.34;105108;1254;59661;-48
2023/04/23 01:00:22;;;;;;;16.70;13.20;;;;;;;13.59;51.46;100430.77;105010;1260;65397;-44
2023/04/23 01:02:49;;;;;;;18.10;13.60;;;;;;;13.56;51.41;100430.30;108455;1254;62390;-45
2023/04/23 01:05:16;;;;;;;14.50;11.70;;;;;;;13.52;51.51;100431.89;108475;1254;65861;-45
2023/04/23 01:07:44;;;;;;;17.70;13.30;;;;;;;13.47;51.68;100432.92;108471;1255;59217;-45
2023/04/23 01:10:11;;;;;;;19.30;13.60;;;;;;;13.45;51.93;100433.42;108582;1254;57999;-49
2023/04/23 01:12:38;;;;;;;18.30;12.70;;;;;;;13.44;52.13;100435.13;108561;1254;65699;-46
2023/04/23 01:15:07;;;;;;;17.00;13.00;;;;;;;13.42;52.20;100431.78;108563;1254;62528;-45
2023/04/23 01:17:34;;;;;;;16.60;12.20;;;;;;;13.41;52.47;100434.87;108584;1256;66991;-45
2023/04/23 01:20:01;;;;;;;22.80;12.70;;;;;;;13.41;52.75;100434.13;107320;1257;60210;-46
2023/04/23 01:22:28;;;;;;;18.50;12.90;;;;;;;13.41;52.89;100435.38;108597;1256;58773;-46
2023/04/23 01:24:55;;;;;;;20.00;13.70;;;;;;;13.42;52.96;100434.63;108536;1254;65288;-46
2023/04/23 01:27:23;;;;;;;16.50;12.90;;;;;;;13.41;52.87;100432.77;108585;1257;61357;-46
2023/04/23 01:29:50;;;;;;;20.50;14.20;;;;;;;13.40;52.86;100436.48;108568;1254;64876;-46
2023/04/23 01:32:17;;;;;;;20.10;13.40;;;;;;;13.40;52.79;100436.88;106288;1255;59743;-46
2023/04/23 01:34:45;;;;;;;18.00;13.60;;;;;;;13.39;52.97;100439.13;108027;1253;59679;-50
2023/04/23 01:37:12;;;;;;;17.60;13.00;;;;;;;13.37;53.11;100438.23;108551;1256;64489;-46
2023/04/23 01:39:39;;;;;;;16.80;12.90;;;;;;;13.33;53.23;100438.01;108577;1254;62233;-46
2023/04/23 01:42:06;;;;;;;17.40;13.20;;;;;;;13.30;53.17;100437.58;108460;1254;66354;-46
2023/04/23 01:44:32;;;;;;;19.20;13.50;;;;;;;13.28;53.05;100436.35;108488;1254;61731;-46
2023/04/23 01:46:59;;;;;;;17.30;13.50;;;;;;;13.26;53.13;100439.92;108358;1254;58941;-46
2023/04/23 01:49:26;;;;;;;21.20;14.50;;;;;;;13.23;53.31;100440.18;108553;1254;65420;-47
2023/04/23 01:51:53;;;;;;;19.10;14.10;;;;;;;13.22;53.50;100439.71;108500;1255;62375;-46
2023/04/23 01:54:20;;;;;;;20.40;14.50;;;;;;;13.22;53.63;100441.13;108522;1257;65008;-47
2023/04/23 01:56:53;;;;;;;21.10;14.30;;;;;;;13.20;53.68;100443.91;108590;1256;59737;-47
2023/04/23 01:59:21;;;;;;;20.60;14.70;;;;;;;13.19;53.67;100442.77;108627;1254;58292;-48
2023/04/23 02:01:48;;;;;;;18.80;14.00;;;;;;;13.17;53.53;100443.86;108592;1254;65609;-46
2023/04/23 02:04:16;;;;;;;19.00;14.60;;;;;;;13.13;53.34;100438.09;108631;1254;62553;-46
2023/04/23 02:06:45;;;;;;;19.10;14.70;;;;;;;13.08;53.49;100439.59;108593;1255;63715;-46
2023/04/23 02:09:12;;;;;;;20.30;15.70;;;;;;;13.03;53.78;100441.55;107099;1256;59910;-46
2023/04/23 02:11:39;;;;;;;24.70;18.20;;;;;;;12.99;54.04;100438.41;105031;1255;61645;-46
2023/04/23 02:14:06;;;;;;;23.70;16.80;;;;;;;12.96;53.94;100439.73;108571;1257;65969;-46
2023/04/23 02:16:33;;;;;;;21.30;16.60;;;;;;;12.92;54.15;100441.30;108648;1254;64228;-45
2023/04/23 02:19:00;;;;;;;24.90;18.70;;;;;;;12.87;54.15;100443.15;108595;1254;65458;-46
2023/04/23 02:21:27;;;;;;;26.10;18.10;;;;;;;12.82;54.20;100443.08;108676;1252;58145;-46
2023/04/23 02:23:54;;;;;;;23.50;16.30;;;;;;;12.77;54.21;100445.98;108597;1254;58021;-46
2023/04/23 02:26:21;;;;;;;23.70;16.80;;;;;;;12.73;54.30;100450.42;108547;1253;73628;-46
2023/04/23 02:28:48;;;;;;;24.60;17.60;;;;;;;12.71;54.49;100448.84;108639;1254;62861;-45
2023/04/23 02:31:15;;;;;;;20.80;15.80;;;;;;;12.72;54.77;100448.52;107192;1254;65072;-48
2023/04/23 02:33:43;;;;;;;23.80;15.60;;;;;;;12.80;54.72;100447.50;105201;1257;63865;-45
2023/04/23 02:36:11;;;;;;;22.60;16.40;;;;;;;12.87;54.77;100449.67;108635;1254;59608;-45
2023/04/23 02:38:41;;;;;;;25.20;17.20;;;;;;;12.90;54.65;100452.23;108610;1257;65381;-45
2023/04/23 02:41:08;;;;;;;25.70;18.80;;;;;;;12.90;54.60;100454.37;108648;1255;61866;-47
2023/04/23 02:43:35;;;;;;;26.30;19.00;;;;;;;12.90;54.46;100457.91;108599;1257;63989;-47
2023/04/23 02:46:07;;;;;;;27.80;18.50;;;;;;;12.88;54.51;100460.48;108628;1254;58972;-46
2023/04/23 02:48:41;;;;;;;25.70;20.30;;;;;;;12.86;54.37;100457.69;108645;1254;58203;-47
2023/04/23 02:51:09;;;;;;;25.60;18.50;;;;;;;12.85;54.54;100458.50;108548;1257;65231;-46
2023/04/23 02:53:36;;;;;;;23.00;18.10;;;;;;;12.83;54.76;100463.05;108606;1256;62421;-46
2023/04/23 02:56:02;;;;;;;25.30;17.80;;;;;;;12.81;55.00;100464.13;108578;1258;63752;-46
2023/04/23 02:58:30;;;;;;;26.10;17.00;;;;;;;12.79;55.31;100467.43;108554;1253;58112;-46
2023/04/23 03:00:58;;;;;;;23.20;16.90;;;;;;;12.77;55.44;100463.91;108574;1254;58959;-46
2023/04/23 03:03:30;;;;;;;23.50;17.90;;;;;;;12.77;55.68;100463.25;108650;1260;68632;-46
2023/04/23 03:05:58;;;;;;;23.40;18.10;;;;;;;12.76;55.89;100466.66;108508;1257;65258;-46
2023/04/23 03:08:24;;;;;;;23.70;17.00;;;;;;;12.74;55.94;100467.95;108582;1254;64598;-46
2023/04/23 03:10:51;;;;;;;23.20;17.40;;;;;;;12.72;55.86;100468.10;108548;1259;57879;-45
2023/04/23 03:13:18;;;;;;;21.70;14.90;;;;;;;12.70;55.83;100472.68;108532;1253;59419;-47
2023/04/23 03:15:44;;;;;;;21.80;15.20;;;;;;;12.71;55.80;100469.35;108643;1257;65131;-47
2023/04/23 03:18:11;;;;;;;21.20;14.50;;;;;;;12.77;55.99;100475.14;108625;1253;62248;-46
2023/04/23 03:20:38;;;;;;;21.10;14.40;;;;;;;12.85;55.98;100479.13;108660;1253;64086;-46
2023/04/23 03:23:08;;;;;;;20.70;14.70;;;;;;;12.89;55.90;100481.80;108504;1257;60910;-46
2023/04/23 03:25:35;;;;;;;19.40;14.30;;;;;;;12.92;56.01;100485.70;108584;1254;58719;-47
2023/04/23 03:28:01;;;;;;;17.00;12.60;;;;;;;12.94;56.06;100483.11;108597;1254;65191;-46
2023/04/23 03:30:29;;;;;;;17.90;12.80;;;;;;;12.95;56.04;100482.08;108773;1254;62458;-46
2023/04/23 03:32:56;;;;;;;18.50;12.60;;;;;;;12.97;55.97;100484.92;108806;1254;64045;-47
2023/04/23 03:35:23;;;;;;;19.80;13.30;;;;;;;12.96;55.75;100487.15;108687;1254;59054;-46
2023/04/23 03:37:51;;;;;;;16.50;12.80;;;;;;;12.91;55.86;100489.48;105564;1260;63212;-45
2023/04/23 03:40:18;;;;;;;19.90;12.80;;;;;;;12.86;55.82;100490.60;105095;1257;66863;-47
2023/04/23 03:42:47;;;;;;;17.70;12.00;;;;;;;12.81;55.69;100495.08;108484;1253;62509;-47
2023/04/23 03:45:15;;;;;;;17.10;12.20;;;;;;;12.79;55.71;100496.52;106454;1257;64898;-47
2023/04/23 03:47:42;;;;;;;18.70;12.30;;;;;;;12.77;55.60;100497.77;108550;1252;59807;-47
2023/04/23 03:50:11;;;;;;;17.20;11.80;;;;;;;12.77;55.44;100499.00;108549;1257;60629;-48
2023/04/23 03:52:39;;;;;;;18.90;12.20;;;;;;;12.78;55.32;100500.83;108590;1254;66210;-47
2023/04/23 03:55:07;;;;;;;17.50;12.60;;;;;;;12.78;55.36;100501.67;108684;1254;62802;-45
2023/04/23 03:57:41;;;;;;;19.10;13.20;;;;;;;12.80;55.35;100502.95;105725;1257;65306;-45
2023/04/23 04:00:18;;;;;;;15.40;12.30;;;;;;;12.79;55.34;100506.88;105268;1253;60561;-48
2023/04/23 04:02:45;;;;;;;17.00;12.10;;;;;;;12.78;55.28;100509.23;105181;1254;62297;-45
2023/04/23 04:05:12;;;;;;;15.20;11.30;;;;;;;12.78;55.35;100511.04;108637;1254;66257;-45
2023/04/23 04:07:40;;;;;;;17.90;10.80;;;;;;;12.82;55.15;100512.23;108614;1254;62426;-46
2023/04/23 04:10:07;;;;;;;18.10;11.40;;;;;;;12.91;54.61;100512.70;108636;1254;64910;-45
2023/04/23 04:12:35;;;;;;;16.60;11.10;;;;;;;12.96;54.17;100517.73;108604;1254;58864;-45
2023/04/23 04:15:02;;;;;;;14.60;11.20;;;;;;;12.99;54.23;100515.18;108618;1254;60162;-46
2023/04/23 04:17:30;;;;;;;21.70;11.10;;;;;;;13.03;54.24;100517.50;108649;1253;66155;-45
2023/04/23 04:19:56;;;;;;;20.50;10.80;;;;;;;13.05;54.04;100522.92;108620;1254;61206;-45
2023/04/23 04:22:23;;;;;;;16.60;11.20;;;;;;;13.06;53.90;100525.98;108568;1254;64716;-46
2023/04/23 04:24:51;;;;;;;14.20;10.90;;;;;;;13.09;53.73;100525.77;108620;1257;60015;-48
2023/04/23 04:27:18;;;;;;;16.10;11.10;;;;;;;13.13;53.38;100527.86;108572;1253;59591;-45
2023/04/23 04:29:45;;;;;;;16.70;10.50;;;;;;;13.16;53.17;100529.01;108595;1254;66313;-46
2023/04/23 04:32:12;;;;;;;17.30;11.10;;;;;;;13.20;52.89;100529.85;108664;1257;63804;-46
2023/04/23 04:34:39;;;;;;;18.60;11.00;;;;;;;13.24;52.57;100533.79;108695;1253;64899;-47
2023/04/23 04:37:06;;;;;;;18.10;10.80;;;;;;;13.26;52.50;100535.37;108598;1254;60113;-46
2023/04/23 04:39:33;;;;;;;14.10;10.70;;;;;;;13.28;52.44;100537.44;108571;1257;60484;-46
2023/04/23 04:42:01;;;;;;;19.10;11.10;;;;;;;13.33;52.56;100540.91;108605;1254;64997;-46
2023/04/23 04:44:29;;;;;;;18.60;12.00;;;;;;;13.39;52.62;100542.48;108599;1253;61843;-46
2023/04/23 04:46:56;;;;;;;16.50;11.50;;;;;;;13.44;52.15;100545.39;108622;1253;64212;-46
2023/04/23 04:49:23;;;;;;;17.30;12.10;;;;;;;13.48;51.89;100547.31;108584;1254;58298;-46
2023/04/23 04:51:50;;;;;;;18.20;11.90;;;;;;;13.52;51.72;100549.61;108572;1257;61171;-46
2023/04/23 04:54:17;;;;;;;17.30;11.20;;;;;;;13.50;51.59;100552.99;108463;1253;66226;-46
2023/04/23 04:56:43;;;;;;;15.40;11.70;;;;;;;13.48;51.69;100554.23;104184;1258;63299;-45
2023/04/23 04:59:10;;;;;;;17.20;11.70;;;;;;;13.50;51.74;100556.16;105187;1257;64854;-46
2023/04/23 05:01:37;;;;;;;15.80;11.10;;;;;;;13.54;51.88;100557.59;108601;1253;59890;-46
2023/04/23 05:04:04;;;;;;;17.60;11.40;;;;;;;13.60;52.00;100561.09;108682;1254;60365;-46
2023/04/23 05:06:31;;;;;;;14.90;10.60;;;;;;;13.68;52.08;100559.15;108618;1254;66210;-47
2023/04/23 05:08:58;;;;;;;15.90;10.90;;;;;;;13.76;51.97;100561.07;108637;1253;62457;-46
2023/04/23 05:11:25;;;;;;;21.20;11.90;;;;;;;13.82;51.62;100561.71;108679;1253;63807;-46
2023/04/23 05:13:52;;;;;;;20.30;12.50;;;;;;;13.88;51.55;100563.27;108577;1257;59593;-46
2023/04/23 05:16:18;;;;;;;20.50;13.50;;;;;;;13.96;51.58;100565.05;108678;1254;60116;-46
2023/04/23 05:18:45;;;;;;;20.80;14.00;;;;;;;14.04;51.75;100569.66;108567;1255;65931;-46
2023/04/23 05:21:14;;;;;;;22.40;12.80;;;;;;;14.10;51.59;100572.42;108591;1254;63827;-46
2023/04/23 05:23:41;;;;;;;18.80;12.70;;;;;;;14.15;51.36;100576.17;108568;1254;64842;-46
2023/04/23 05:26:07;;;;;;;22.70;14.10;;;;;;;14.19;51.24;100579.17;108605;1254;61431;-46
2023/04/23 05:28:34;;;;;;;19.40;13.70;;;;;;;14.23;51.09;100579.40;108586;1254;59649;-46
2023/04/23 05:31:02;;;;;;;16.90;12.90;;;;;;;14.27;51.16;100584.13;108591;1253;65029;-47
2023/04/23 05:33:29;;;;;;;21.40;14.10;;;;;;;14.31;51.21;100584.95;108751;1254;62757;-47
2023/04/23 05:36:07;;;;;;;20.30;12.10;;;;;;;14.40;51.34;100586.97;108641;1254;64838;-46
2023/04/23 05:38:33;;;;;;;18.90;11.40;;;;;;;14.50;51.32;100588.17;108059;1254;58856;-46
2023/04/23 05:41:00;;;;;;;19.30;11.30;;;;;;;14.60;51.12;100588.64;105206;1260;61657;-46
2023/04/23 05:43:27;;;;;;;13.40;9.90;;;;;;;14.67;51.03;100588.88;105246;1257;66197;-46
2023/04/23 05:45:54;;;;;;;15.60;10.50;;;;;;;14.75;50.87;100593.06;106645;1257;61627;-46
2023/04/23 05:48:20;;;;;;;15.80;9.80;;;;;;;14.83;50.36;100590.88;108292;1254;64174;-46
2023/04/23 05:50:48;;;;;;;13.60;9.90;;;;;;;14.91;50.05;100588.61;105232;1256;60440;-46
2023/04/23 05:53:15;;;;;;;16.00;10.30;;;;;;;14.97;49.90;100591.55;105199;1254;60646;-47
2023/04/23 05:55:42;;;;;;;16.30;10.10;;;;;;;15.04;49.95;100589.09;104262;1257;66403;-48
2023/04/23 05:58:08;;;;;;;13.00;8.70;;;;;;;15.11;49.68;100593.35;104126;1254;63135;-47
2023/04/23 06:00:36;;;;;;;10.90;8.30;;;;;;;15.18;49.37;100593.94;104510;1256;64000;-46
2023/04/23 06:03:03;;;;;;;11.40;8.20;;;;;;;15.25;49.03;100599.81;103911;1260;62611;-45
2023/04/23 06:05:30;;;;;;;10.40;8.10;;;;;;;15.31;48.82;100603.09;108600;1254;58908;-45
2023/04/23 06:07:57;;;;;;;14.00;7.40;;;;;;;15.37;48.71;100604.52;108637;1253;65461;-45
2023/04/23 06:10:24;;;;;;;11.30;7.90;;;;;;;15.42;48.51;100607.55;108639;1254;61707;-45
2023/04/23 06:12:53;;;;;;;13.80;8.10;;;;;;;15.48;48.41;100610.47;108593;1254;65294;-45
2023/04/23 06:15:19;;;;;;;10.50;7.20;;;;;;;15.56;48.23;100608.11;108583;1269;58847;-45
2023/04/23 06:17:46;;;;;;;13.30;7.10;;;;;;;15.65;47.83;100608.66;108721;1254;59002;-46
2023/04/23 06:20:13;;;;;;;11.60;8.10;;;;;;;15.73;47.61;100610.20;108578;1256;66188;-46
2023/04/23 06:22:40;;;;;;;11.50;7.80;;;;;;;15.82;47.64;100613.20;108604;1253;62363;-46
2023/04/23 06:25:07;;;;;;;14.70;8.20;;;;;;;15.90;47.31;100613.52;108603;1254;65000;-46
2023/04/23 06:27:34;;;;;;;11.00;8.00;;;;;;;15.96;46.98;100616.42;108550;1254;59715;-46
2023/04/23 06:30:06;;;;;;;11.90;8.10;;;;;;;16.00;46.86;100613.83;108507;1254;58829;-45
2023/04/23 06:32:33;;;;;;;11.90;7.50;;;;;;;16.01;46.80;100614.59;108505;1254;65303;-46
2023/04/23 06:35:00;;;;;;;10.60;7.60;;;;;;;16.03;46.74;100617.87;108655;1253;62303;-46
2023/04/23 06:37:30;;;;;;;12.20;7.90;;;;;;;16.08;46.65;100622.03;106911;1254;65094;-44
2023/04/23 06:39:58;;;;;;;12.40;7.70;;;;;;;16.11;45.83;100618.86;105304;1257;60429;-44
2023/04/23 06:42:25;;;;;;;12.10;7.40;;;;;;;16.13;45.33;100619.67;108559;1253;58924;-44
2023/04/23 06:45:18;;;;;;;13.20;8.20;;;;;;;16.15;45.02;100621.48;108421;1254;66130;-45
2023/04/23 06:47:45;;;;;;;13.50;8.00;;;;;;;16.17;44.69;100623.75;108617;1254;63324;-45
2023/04/23 06:50:12;;;;;;;12.50;8.10;;;;;;;16.19;44.86;100621.67;108659;1253;64650;-45
2023/04/23 06:52:39;;;;;;;11.50;8.30;;;;;;;16.21;44.91;100623.95;108505;1254;59971;-46
2023/04/23 06:55:07;;;;;;;13.00;8.70;;;;;;;16.23;45.10;100624.07;108558;1254;59819;-45
2023/04/23 06:57:34;;;;;;;12.10;8.80;;;;;;;16.25;45.26;100624.55;108509;1254;66260;-46
2023/04/23 07:00:02;;;;;;;14.00;8.60;;;;;;;16.27;45.23;100623.41;108590;1253;62330;-47
2023/04/23 07:02:33;;;;;;;10.70;7.80;;;;;;;16.30;44.87;100626.32;108537;1253;65204;-46
2023/04/23 07:05:00;;;;;;;13.30;8.40;;;;;;;16.33;44.50;100625.88;108589;1254;59769;-47
2023/04/23 07:07:27;;;;;;;12.20;8.90;;;;;;;16.35;44.55;100627.77;108608;1256;59569;-46
2023/04/23 07:09:54;;;;;;;13.50;8.60;;;;;;;16.41;44.54;100628.42;108650;1253;68346;-49
2023/04/23 07:12:21;;;;;;;14.40;8.50;;;;;;;16.48;44.53;100627.31;108540;1253;61549;-46
2023/04/23 07:14:47;;;;;;;13.30;9.20;;;;;;;16.59;44.45;100626.79;108577;1254;65204;-46
2023/04/23 07:17:14;;;;;;;12.60;8.70;;;;;;;16.67;43.70;100631.86;108584;1254;59487;-46
2023/04/23 07:19:41;;;;;;;12.00;8.30;;;;;;;16.69;43.32;100632.88;108646;1253;59644;-46
2023/04/23 07:22:07;;;;;;;11.70;8.50;;;;;;;16.68;43.79;100635.22;108588;1257;66920;-46
2023/04/23 07:24:34;;;;;;;13.30;8.60;;;;;;;16.69;43.66;100633.56;108642;1253;61625;-46
2023/04/23 07:27:01;;;;;;;14.50;8.90;;;;;;;16.72;43.65;100636.42;108663;1253;65207;-46
2023/04/23 07:29:28;;;;;;;12.70;8.80;;;;;;;16.75;43.74;100633.66;108532;1254;59522;-46
2023/04/23 07:31:55;;;;;;;12.50;7.60;;;;;;;16.79;43.63;100639.80;108565;1252;58971;-46
2023/04/23 07:34:22;;;;;;;11.30;8.20;;;;;;;16.83;43.31;100637.44;108787;1254;64988;-47
2023/04/23 07:36:49;;;;;;;12.10;7.90;;;;;;;16.86;43.50;100635.73;108591;1253;62538;-46
2023/04/23 07:39:16;;;;;;;14.10;8.40;;;;;;;16.89;43.32;100634.02;108427;1253;65071;-46
2023/04/23 07:41:43;;;;;;;11.70;8.30;;;;;;;16.91;43.09;100634.55;108535;1254;60059;-46
2023/04/23 07:44:09;;;;;;;12.20;8.00;;;;;;;16.92;43.42;100639.23;108661;1254;58928;-46
2023/04/23 07:46:36;;;;;;;14.40;8.70;;;;;;;16.93;43.42;100636.98;108028;1254;65995;-46
2023/04/23 07:49:03;;;;;;;12.50;8.10;;;;;;;16.97;43.30;100639.63;105193;1257;63742;-46
2023/04/23 07:51:30;;;;;;;11.40;8.30;;;;;;;17.00;43.28;100637.72;105145;1253;64024;-45
2023/04/23 07:53:57;;;;;;;10.50;7.70;;;;;;;17.03;43.52;100637.56;108656;1253;59809;-45
2023/04/23 07:56:24;;;;;;;11.30;8.10;;;;;;;17.08;43.61;100637.27;108651;1254;58699;-45
2023/04/23 07:58:52;;;;;;;14.50;8.10;;;;;;;17.15;43.54;100634.27;108597;1253;65694;-45
2023/04/23 08:01:20;;;;;;;13.60;8.00;;;;;;;17.21;43.38;100634.49;108581;1254;62708;-45
2023/04/23 08:03:47;;;;;;;13.00;8.70;;;;;;;17.25;42.83;100635.58;108660;1253;63544;-45
2023/04/23 08:06:14;;;;;;;11.30;7.90;;;;;;;17.28;42.38;100634.12;108621;1253;59454;-45
2023/04/23 08:08:41;;;;;;;14.70;8.90;;;;;;;17.30;42.18;100633.36;108624;1253;60210;-46
2023/04/23 08:11:08;;;;;;;10.60;7.50;;;;;;;17.32;42.07;100632.64;108566;1253;64986;-46
2023/04/23 08:13:35;;;;;;;11.90;8.00;;;;;;;17.34;41.77;100629.59;108621;1252;61938;-48
2023/04/23 08:16:01;;;;;;;9.90;7.60;;;;;;;17.36;41.50;100622.15;108629;1253;65079;-45
2023/04/23 08:18:28;;;;;;;10.10;7.30;;;;;;;17.40;41.54;100621.88;108512;1254;58925;-46
2023/04/23 08:20:56;;;;;;;10.90;6.80;;;;;;;17.45;41.36;100618.18;108609;1253;59290;-45
2023/04/23 08:23:23;;;;;;;11.50;6.90;;;;;;;17.51;41.39;100618.30;108595;1253;67754;-45
2023/04/23 08:25:50;;;;;;;10.70;7.00;;;;;;;17.57;41.14;100618.34;108569;1254;61694;-45
2023/04/23 08:28:18;;;;;;;10.20;6.90;;;;;;;17.63;40.37;100619.09;108545;1256;67040;-45
2023/04/23 08:30:45;;;;;;;10.70;7.40;;;;;;;17.67;40.03;100619.77;108589;1253;59628;-45
2023/04/23 08:33:12;;;;;;;12.30;7.00;;;;;;;17.71;39.91;100615.98;108677;1254;59973;-45
2023/04/23 08:35:39;;;;;;;11.80;6.40;;;;;;;17.77;39.82;100613.83;108627;1255;66319;-45
2023/04/23 08:38:06;;;;;;;9.50;6.30;;;;;;;17.87;39.58;100615.02;108619;1254;62013;-46
2023/04/23 08:40:35;;;;;;;12.70;6.50;;;;;;;17.99;39.60;100610.69;108586;1257;63884;-46
2023/04/23 08:43:03;;;;;;;9.20;6.00;;;;;;;18.15;39.39;100609.35;108496;1253;59931;-46
2023/04/23 08:45:30;;;;;;;11.40;5.50;;;;;;;18.29;39.08;100605.88;108546;1253;59309;-46
2023/04/23 08:47:58;;;;;;;9.50;5.80;;;;;;;18.43;38.49;100606.83;108548;1254;65641;-46
2023/04/23 08:50:28;;;;;;;8.50;5.20;;;;;;;18.56;38.14;100609.65;108593;1257;61359;-46
2023/04/23 08:52:56;;;;;;;10.50;6.00;;;;;;;18.64;37.67;100609.83;108636;1253;76289;-46
2023/04/23 08:55:23;;;;;;;10.40;5.10;;;;;;;18.72;37.62;100605.88;108620;1253;58493;-46
2023/04/23 08:57:50;;;;;;;9.10;5.80;;;;;;;18.78;36.87;100602.19;108560;1253;58823;-46
2023/04/23 09:00:18;;;;;;;9.50;5.40;;;;;;;18.81;36.87;100599.59;108581;1254;66281;-46
2023/04/23 09:02:46;;;;;;;9.80;5.90;;;;;;;18.84;37.18;100597.17;108586;1254;63249;-47
2023/04/23 09:05:13;;;;;;;10.00;5.90;;;;;;;18.87;37.50;100596.08;108592;1253;63610;-46
2023/04/23 09:07:40;;;;;;;8.50;5.20;;;;;;;18.95;37.47;100592.33;108631;1253;60381;-46
2023/04/23 09:10:08;;;;;;;9.30;4.80;;;;;;;19.09;36.87;100589.17;108553;1253;59417;-46
2023/04/23 09:12:35;;;;;;;10.90;5.40;;;;;;;19.24;36.04;100588.58;108578;1252;65927;-46
2023/04/23 09:15:09;;;;;;;7.90;5.40;;;;;;;19.38;36.30;100588.34;108607;1254;61512;-46
2023/04/23 09:17:43;;;;;;;9.50;5.60;;;;;;;19.51;35.86;100591.52;108594;1254;74989;-46
2023/04/23 09:20:11;;;;;;;10.80;6.00;;;;;;;19.57;35.42;100592.27;107160;1253;58972;-46
2023/04/23 09:22:49;;;;;;;7.40;4.80;;;;;;;19.60;35.19;100590.63;105835;1253;60460;-46
2023/04/23 09:25:17;;;;;;;6.50;3.70;;;;;;;19.63;34.90;100591.05;108616;1253;66557;-46
2023/04/23 09:27:54;;;;;;;8.10;2.40;;;;;;;19.66;33.51;100587.53;108640;1252;61629;-46
2023/04/23 09:30:22;;;;;;;4.20;1.70;;;;;;;19.70;31.81;100588.11;108595;1253;64857;-46
2023/04/23 09:32:49;;;;;;;6.80;2.00;;;;;;;19.74;31.09;100588.02;108594;1256;58952;-46
2023/04/23 09:35:16;;;;;;;4.20;1.80;;;;;;;19.76;30.39;100584.04;108488;1252;59889;-47
2023/04/23 09:37:47;;;;;;;6.30;2.10;;;;;;;19.78;29.84;100579.60;107900;1256;66004;-46
2023/04/23 09:40:18;;;;;;;5.10;2.80;;;;;;;19.80;29.78;100577.11;105288;1254;62433;-45
2023/04/23 09:42:49;;;;;;;7.90;3.30;;;;;;;19.83;29.84;100576.46;107702;1253;64156;-45
2023/04/23 09:45:16;;;;;;;6.00;2.50;;;;;;;19.86;29.73;100576.80;108600;1256;58968;-46
2023/04/23 09:47:50;;;;;;;6.30;3.00;;;;;;;19.90;28.86;100573.80;108651;1256;58701;-46
2023/04/23 09:50:17;;;;;;;5.50;2.90;;;;;;;19.92;29.29;100573.55;108597;1254;66010;-46
2023/04/23 09:52:44;;;;;;;5.40;2.60;;;;;;;19.94;29.13;100575.07;106491;1254;62400;-47
2023/04/23 09:55:11;;;;;;;7.00;2.90;;;;;;;19.97;29.20;100570.65;108603;1254;65244;-46
2023/04/23 09:57:42;;;;;;;6.10;2.80;;;;;;;20.02;29.03;100572.83;108587;1254;58665;-46
2023/04/23 10:00:17;;;;;;;6.00;2.50;;;;;;;20.06;29.01;100569.92;108547;1254;60077;-46
2023/04/23 10:02:48;;;;;;;;;;;;;;;20.09;29.23;100567.60;108640;1257;66903;-46
2023/04/23 10:05:16;;;;;;;4.30;1.60;;;;;;;20.13;28.92;100567.12;106435;1253;62472;-46
2023/04/23 10:07:55;;;;;;;3.80;1.30;;;;;;;20.17;28.48;100567.89;108521;1253;63852;-46
2023/04/23 10:10:22;;;;;;;4.70;1.80;;;;;;;20.24;28.23;100564.91;108564;1254;59624;-46
2023/04/23 10:12:50;;;;;;;4.90;1.50;;;;;;;20.34;27.39;100563.45;108617;1253;60252;-46
2023/04/23 10:15:25;;;;;;;4.30;2.00;;;;;;;20.42;26.79;100561.89;108488;1254;67209;-46
2023/04/23 10:17:53;;;;;;;4.40;1.70;;;;;;;20.50;27.02;100561.97;108591;1254;65390;-46
2023/04/23 10:20:23;;;;;;;4.80;2.20;;;;;;;20.59;27.54;100560.95;108631;1253;65783;-46
2023/04/23 10:22:50;;;;;;;5.10;2.40;;;;;;;20.69;27.18;100561.81;108564;1253;60100;-46
2023/04/23 10:25:17;;;;;;;5.20;2.20;;;;;;;20.79;27.32;100558.91;108464;1256;59547;-46
2023/04/23 10:27:47;;;;;;;7.00;2.30;;;;;;;20.92;26.91;100558.61;106407;1257;65129;-46
2023/04/23 10:30:21;;;;;;;5.90;2.30;;;;;;;21.08;26.47;100555.40;105185;1254;62667;-46
2023/04/23 10:32:48;;;;;;;5.70;2.90;;;;;;;21.25;26.41;100553.54;105304;1253;64651;-45
2023/04/23 10:35:15;;;;;;;5.30;2.60;;;;;;;21.42;26.01;100553.77;108689;1257;58904;-46
2023/04/23 10:37:42;;;;;;;6.20;3.10;;;;;;;21.55;25.74;100550.38;108639;1254;60103;-46
2023/04/23 10:40:13;;;;;;;5.70;2.50;;;;;;;21.62;25.61;100548.95;108494;1254;66081;-46
2023/04/23 10:42:40;;;;;;;7.40;2.30;;;;;;;21.70;25.41;100548.25;108594;1254;62634;-46
2023/04/23 10:45:16;;;;;;;5.40;2.70;;;;;;;21.79;25.43;100547.14;108566;1252;63949;-46
2023/04/23 10:47:46;;;;;;;5.60;2.40;;;;;;;21.86;25.51;100545.23;108568;1253;60028;-46
2023/04/23 10:50:40;;;;;;;7.60;3.00;;;;;;;21.94;25.38;100544.48;108599;1253;60857;-47
2023/04/23 10:53:27;;;;;;;7.80;2.50;;;;;;;22.02;25.51;100542.02;108566;1253;66034;-46
2023/04/23 10:56:06;;;;;;;4.70;2.00;;;;;;;22.08;25.32;100545.05;108374;1253;66446;-47
2023/04/23 10:58:50;;;;;;;6.10;3.10;;;;;;;22.16;25.78;100541.58;108589;1257;65143;-46
2023/04/23 11:01:17;;;;;;;6.20;2.90;;;;;;;22.28;25.58;100538.12;108544;1254;60677;-46
2023/04/23 11:03:44;;;;;;;8.80;2.90;;;;;;;22.42;25.63;100538.56;108495;1254;59843;-46
2023/04/23 11:06:14;;;;;;;6.00;2.90;;;;;;;22.57;25.24;100538.41;108576;1253;65514;-46
2023/04/23 11:08:55;;;;;;;6.10;3.40;;;;;;;22.73;24.79;100538.08;108575;1253;72754;-46
2023/04/23 11:11:41;;;;;;;5.60;3.10;;;;;;;22.81;23.54;100534.33;108456;1253;63804;-46